TimeMDT,TemperatureF,Dew PointF,Humidity,Sea Level PressureIn,VisibilityMPH,Wind Direction,Wind SpeedMPH,Gust SpeedMPH,PrecipitationIn,Events,Conditions,WindDirDegrees,DateUTC
12:53 AM,64.9,36.0,34,29.85,10.0,WNW,6.9,-,N/A,,Clear,300,2013-07-28 06:53:00
1:53 AM,64.0,37.0,37,29.84,10.0,Calm,Calm,-,N/A,,Clear,0,2013-07-28 07:53:00
2:53 AM,63.0,37.9,40,29.85,10.0,NNW,3.5,-,N/A,,Clear,340,2013-07-28 08:53:00
3:53 AM,57.9,36.0,44,29.86,10.0,Calm,Calm,-,N/A,,Clear,0,2013-07-28 09:53:00
4:53 AM,55.0,37.0,51,29.86,10.0,Calm,Calm,-,N/A,,Clear,0,2013-07-28 10:53:00
5:53 AM,53.1,37.0,55,29.88,10.0,NE,3.5,-,N/A,,Clear,50,2013-07-28 11:53:00
6:53 AM,54.0,37.0,53,29.88,10.0,Calm,Calm,-,N/A,,Clear,0,2013-07-28 12:53:00
7:53 AM,55.9,39.0,53,29.89,10.0,Calm,Calm,-,N/A,,Clear,0,2013-07-28 13:53:00
8:53 AM,61.0,37.0,41,29.89,10.0,Variable,3.5,-,N/A,,Clear,0,2013-07-28 14:53:00
11:53 AM,75.9,36.0,23,29.83,10.0,Variable,3.5,-,N/A,,Clear,0,2013-07-28 17:53:00
12:53 PM,82.0,28.9,14,29.81,10.0,Variable,3.5,-,N/A,,Clear,0,2013-07-28 18:53:00
1:53 PM,82.9,26.1,13,29.79,10.0,Variable,5.8,-,N/A,,Clear,0,2013-07-28 19:53:00
2:53 PM,84.9,27.0,12,29.77,10.0,NNW,11.5,-,N/A,,Clear,330,2013-07-28 20:53:00
3:53 PM,87.1,26.1,11,29.75,10.0,NW,12.7,-,N/A,,Clear,310,2013-07-28 21:53:00
4:53 PM,87.1,21.9,9,29.75,9.0,NW,18.4,28.8,N/A,,Clear,310,2013-07-28 22:53:00
5:53 PM,86.0,26.1,11,29.75,9.0,WNW,17.3,21.9,N/A,,Clear,300,2013-07-28 23:53:00
6:53 PM,84.0,28.0,13,29.75,9.0,NNW,15.0,21.9,N/A,,Clear,330,2013-07-29 00:53:00
7:53 PM,82.0,25.0,12,29.77,7.0,WNW,15.0,-,N/A,,Clear,300,2013-07-29 01:53:00
8:53 PM,75.0,25.0,16,29.78,6.0,NNW,4.6,-,N/A,,Haze,330,2013-07-29 02:53:00
9:53 PM,68.0,28.9,23,29.80,7.0,North,5.8,-,N/A,,Clear,350,2013-07-29 03:53:00
10:53 PM,64.9,28.9,26,29.82,8.0,Calm,Calm,-,N/A,,Clear,0,2013-07-29 04:53:00